Time;durP1;ratioP1;P1;durP2;ratioP2;P2;SDS_P1;SDS_P2;PMS_P1;PMS_P2;Temp;Humidity;BMP_temperature;BMP_pressure;BME280_temperature;BME280_humidity;BME280_pressure;Samples;Min_cycle;Max_cycle;Signal;HPM_P1;HPM_P2
2022/09/26 00:00:46;;;;;;;10.57;2.60;;;12.60;99.90;;;;;;5032376;28;20033;-72
2022/09/26 00:03:12;;;;;;;5.10;1.67;;;12.60;99.90;;;;;;5032314;28;20104;-72
2022/09/26 00:05:38;;;;;;;6.70;1.77;;;12.60;99.90;;;;;;5032327;28;20028;-72
2022/09/26 00:08:06;;;;;;;5.82;1.65;;;12.60;99.90;;;;;;5032297;28;20474;-72
2022/09/26 00:10:33;;;;;;;167.13;92.93;;;12.50;99.90;;;;;;5032912;28;20044;-72
2022/09/26 00:12:59;;;;;;;29.83;13.38;;;12.50;99.90;;;;;;5047302;28;20263;-73
2022/09/26 00:15:25;;;;;;;7.07;2.95;;;12.50;99.90;;;;;;5047788;28;20033;-73
2022/09/26 00:17:50;;;;;;;5.85;1.88;;;12.50;99.90;;;;;;5031990;28;20048;-73
2022/09/26 00:20:16;;;;;;;5.22;1.85;;;12.50;99.90;;;;;;5031614;28;20040;-74
2022/09/26 00:22:42;;;;;;;5.93;1.75;;;12.50;99.90;;;;;;5032448;28;20093;-73
2022/09/26 00:25:08;;;;;;;7.57;2.22;;;12.60;99.90;;;;;;5032213;28;20455;-74
2022/09/26 00:27:33;;;;;;;6.45;2.15;;;12.50;99.90;;;;;;5031988;28;20025;-73
2022/09/26 00:29:59;;;;;;;9.52;1.90;;;12.50;99.90;;;;;;5031912;28;20482;-72
2022/09/26 00:32:25;;;;;;;5.55;1.80;;;12.50;99.90;;;;;;5031924;28;20025;-74
2022/09/26 00:34:50;;;;;;;4.28;1.92;;;12.50;99.90;;;;;;5031747;28;20048;-73
2022/09/26 00:37:16;;;;;;;6.90;2.00;;;12.50;99.90;;;;;;5032416;28;20033;-73
2022/09/26 00:39:42;;;;;;;4.88;1.73;;;12.50;99.90;;;;;;5030597;28;20069;-73
2022/09/26 00:42:14;;;;;;;4.85;1.92;;;12.50;99.90;;;;;;5031523;28;20190;-73
2022/09/26 00:44:47;;;;;;;5.55;1.98;;;12.50;99.90;;;;;;5031562;28;20049;-73
2022/09/26 00:47:30;;;;;;;6.63;2.13;;;12.50;99.90;;;;;;5031623;28;20369;-74
2022/09/26 00:50:04;;;;;;;6.85;1.50;;;12.50;99.90;;;;;;5031346;28;20356;-73
2022/09/26 00:52:38;;;;;;;9.48;2.08;;;12.50;99.90;;;;;;5030619;28;20029;-73
2022/09/26 00:55:06;;;;;;;6.75;1.60;;;12.50;99.90;;;;;;5031287;28;20025;-73
2022/09/26 00:57:59;;;;;;;6.80;2.00;;;12.50;99.90;;;;;;5031170;28;20037;-73
2022/09/26 01:00:26;;;;;;;2.75;1.60;;;12.40;99.90;;;;;;5025626;28;20133;-73
2022/09/26 01:02:52;;;;;;;6.50;1.55;;;12.50;99.90;;;;;;5031090;28;20467;-73
2022/09/26 01:05:21;;;;;;;5.38;2.17;;;12.50;99.90;;;;;;5031229;28;20434;-73
2022/09/26 01:07:47;;;;;;;5.60;1.50;;;12.50;99.90;;;;;;5031248;28;20033;-72
2022/09/26 01:10:14;;;;;;;6.82;1.52;;;12.40;99.90;;;;;;5031622;28;20049;-72
2022/09/26 01:12:41;;;;;;;3.63;1.50;;;12.40;99.90;;;;;;5030961;28;20034;-74
2022/09/26 01:15:07;;;;;;;6.70;1.60;;;12.50;99.90;;;;;;5030912;28;20125;-72
2022/09/26 01:17:36;;;;;;;6.03;1.80;;;12.40;99.90;;;;;;5031006;28;20033;-73
2022/09/26 01:20:27;;;;;;;4.40;1.50;;;12.40;99.90;;;;;;5031092;28;20422;-71
2022/09/26 01:23:36;;;;;;;3.90;1.50;;;12.40;99.90;;;;;;5030976;28;20025;-72
2022/09/26 01:26:23;;;;;;;3.45;1.45;;;12.40;99.90;;;;;;5030806;28;20120;-72
2022/09/26 01:29:04;;;;;;;6.40;1.92;;;12.50;99.90;;;;;;5030901;28;20029;-72
2022/09/26 01:34:56;;;;;;;5.30;1.40;;;12.40;99.90;;;;;;5050015;28;20052;-72
2022/09/26 01:37:41;;;;;;;5.85;1.42;;;12.40;99.90;;;;;;5031253;28;20037;-71
2022/09/26 01:40:26;;;;;;;7.97;1.60;;;12.40;99.90;;;;;;5030858;28;20042;-72
2022/09/26 01:43:13;;;;;;;9.93;1.55;;;12.40;99.90;;;;;;5030640;28;20040;-71
2022/09/26 01:45:50;;;;;;;7.60;1.67;;;12.40;99.90;;;;;;5030615;28;20040;-73
2022/09/26 01:48:21;;;;;;;1.95;0.95;;;12.40;99.90;;;;;;5030677;28;20056;-72
2022/09/26 01:50:56;;;;;;;7.43;1.25;;;12.40;99.90;;;;;;5029488;28;20026;-72
2022/09/26 01:53:26;;;;;;;3.28;1.23;;;12.40;99.90;;;;;;5030586;28;20029;-72
2022/09/26 01:55:58;;;;;;;5.15;1.80;;;12.40;99.90;;;;;;5030733;28;20046;-71
2022/09/26 01:58:29;;;;;;;3.05;1.33;;;12.40;99.90;;;;;;5030892;28;20017;-72
2022/09/26 02:01:00;;;;;;;3.55;1.45;;;12.50;99.90;;;;;;5030925;28;20359;-72
2022/09/26 02:03:35;;;;;;;3.63;1.40;;;12.40;99.90;;;;;;5030460;28;20038;-71
2022/09/26 02:06:10;;;;;;;3.85;1.50;;;12.40;99.90;;;;;;5030540;28;20037;-72
2022/09/26 02:08:41;;;;;;;6.50;1.50;;;12.40;99.90;;;;;;5030546;28;20360;-72
2022/09/26 02:11:14;;;;;;;3.13;1.25;;;12.40;99.90;;;;;;5029505;28;20037;-71
2022/09/26 02:14:02;;;;;;;8.82;1.42;;;12.40;99.90;;;;;;5030733;28;20076;-72
2022/09/26 02:16:36;;;;;;;9.55;1.63;;;12.40;99.90;;;;;;5030616;28;20025;-72
2022/09/26 02:19:23;;;;;;;3.03;1.40;;;12.40;99.90;;;;;;5030464;28;20044;-72
2022/09/26 02:21:50;;;;;;;7.82;1.45;;;12.30;99.90;;;;;;5030359;28;20037;-72
2022/09/26 02:24:16;;;;;;;8.20;1.35;;;12.30;99.90;;;;;;5030532;28;20033;-73
2022/09/26 02:26:41;;;;;;;4.43;1.55;;;12.40;99.90;;;;;;5030416;28;20040;-73
2022/09/26 02:29:10;;;;;;;3.78;1.42;;;12.40;99.90;;;;;;5029208;28;20029;-73
2022/09/26 02:31:42;;;;;;;7.68;1.38;;;12.30;99.90;;;;;;5031273;28;20362;-72
2022/09/26 02:34:08;;;;;;;2.33;1.38;;;12.30;99.90;;;;;;5030273;28;20095;-72
2022/09/26 02:36:35;;;;;;;8.35;1.55;;;12.30;99.90;;;;;;5028949;28;20401;-72
2022/09/26 02:39:01;;;;;;;4.85;1.63;;;12.30;99.90;;;;;;5030378;28;20045;-72
2022/09/26 02:41:34;;;;;;;6.18;1.80;;;12.30;99.90;;;;;;5030252;28;20030;-72
2022/09/26 02:44:14;;;;;;;5.03;1.70;;;12.30;99.90;;;;;;5033939;28;20601;-73
2022/09/26 02:46:59;;;;;;;6.63;1.83;;;12.30;99.90;;;;;;5033338;28;20033;-71
2022/09/26 02:50:01;;;;;;;5.05;1.30;;;12.40;99.90;;;;;;5034125;28;20485;-72
2022/09/26 02:52:54;;;;;;;3.72;1.33;;;12.30;99.90;;;;;;5033889;28;20387;-71
2022/09/26 02:55:26;;;;;;;5.35;1.58;;;12.30;99.90;;;;;;5066176;28;20045;-72
2022/09/26 02:58:10;;;;;;;5.22;1.60;;;12.30;99.90;;;;;;5032634;28;20037;-73
2022/09/26 03:01:25;;;;;;;3.75;1.27;;;12.30;99.90;;;;;;5032721;28;20056;-72
2022/09/26 03:04:17;;;;;;;3.28;1.38;;;12.30;99.90;;;;;;5030491;28;20033;-72
2022/09/26 03:06:45;;;;;;;7.60;1.50;;;12.30;99.90;;;;;;5032464;28;20132;-72
2022/09/26 03:09:14;;;;;;;5.93;1.60;;;12.20;99.90;;;;;;5033520;28;20513;-72
2022/09/26 03:11:41;;;;;;;2.85;1.27;;;12.30;99.90;;;;;;5033348;28;20029;-72
2022/09/26 03:14:09;;;;;;;6.93;1.40;;;12.30;99.90;;;;;;5033486;28;20053;-72
2022/09/26 03:16:38;;;;;;;6.80;1.35;;;12.30;99.90;;;;;;5033965;28;20240;-71
2022/09/26 03:19:29;;;;;;;12.27;1.85;;;12.30;99.90;;;;;;5033481;28;20040;-73
2022/09/26 03:21:55;;;;;;;2.63;1.15;;;12.30;99.90;;;;;;5033396;28;20120;-71
2022/09/26 03:24:23;;;;;;;11.98;1.70;;;12.30;99.90;;;;;;5032060;28;20026;-72
2022/09/26 03:26:49;;;;;;;7.38;2.50;;;12.30;99.90;;;;;;5033039;28;20140;-73
2022/09/26 03:29:16;;;;;;;5.55;1.40;;;12.30;99.90;;;;;;5031982;28;20419;-71
2022/09/26 03:31:43;;;;;;;5.43;1.17;;;12.30;99.90;;;;;;5033662;28;20032;-72
2022/09/26 03:34:09;;;;;;;9.23;1.42;;;12.20;99.90;;;;;;5033142;28;20087;-72
2022/09/26 03:36:35;;;;;;;4.05;1.25;;;12.30;99.90;;;;;;5017670;28;20263;-72
2022/09/26 03:39:01;;;;;;;4.32;1.35;;;12.30;99.90;;;;;;5012004;28;20042;-72
2022/09/26 03:41:26;;;;;;;7.00;1.42;;;12.30;99.90;;;;;;5013090;28;20034;-72
2022/09/26 03:43:52;;;;;;;3.90;1.98;;;12.30;99.90;;;;;;5012915;28;20415;-72
2022/09/26 03:46:18;;;;;;;5.03;2.05;;;12.40;99.90;;;;;;5013192;28;20026;-71
2022/09/26 03:48:43;;;;;;;5.00;1.73;;;12.40;99.90;;;;;;5028393;28;20026;-71
2022/09/26 03:51:13;;;;;;;2.35;1.60;;;12.40;99.90;;;;;;5012956;28;20062;-72
2022/09/26 03:53:41;;;;;;;4.72;1.63;;;12.40;99.90;;;;;;5011923;28;20455;-71
2022/09/26 03:56:13;;;;;;;5.20;1.60;;;12.50;99.90;;;;;;5012714;28;20037;-72
2022/09/26 03:58:41;;;;;;;5.95;1.70;;;12.40;99.90;;;;;;5013083;28;20037;-72
2022/09/26 04:01:09;;;;;;;6.43;2.00;;;12.50;99.90;;;;;;5012650;28;20099;-73
2022/09/26 04:03:36;;;;;;;6.28;1.83;;;12.40;99.90;;;;;;5011527;28;20034;-72
2022/09/26 04:06:03;;;;;;;4.57;1.43;;;12.50;99.90;;;;;;5012846;28;20034;-72
2022/09/26 04:08:30;;;;;;;3.55;1.60;;;12.50;99.90;;;;;;5012586;28;20256;-73
2022/09/26 04:11:05;;;;;;;7.13;2.10;;;12.60;99.90;;;;;;5012555;28;20026;-72
2022/09/26 04:13:32;;;;;;;11.80;2.05;;;12.50;99.90;;;;;;5044498;28;20503;-73
2022/09/26 04:15:59;;;;;;;4.80;2.22;;;12.50;99.90;;;;;;5012329;28;20109;-72
2022/09/26 04:18:26;;;;;;;8.63;2.20;;;12.50;99.90;;;;;;5012309;28;20049;-73
2022/09/26 04:21:01;;;;;;;12.55;2.95;;;12.60;99.90;;;;;;5012356;28;20037;-72
2022/09/26 04:23:29;;;;;;;5.65;2.40;;;12.60;99.90;;;;;;5012546;28;20114;-71
2022/09/26 04:25:55;;;;;;;5.43;2.60;;;12.50;99.90;;;;;;5012298;28;20678;-72
2022/09/26 04:28:22;;;;;;;5.40;2.45;;;12.60;99.90;;;;;;5013114;28;20101;-73
2022/09/26 04:30:48;;;;;;;4.55;2.72;;;12.60;99.90;;;;;;5012203;28;20029;-72
2022/09/26 04:33:14;;;;;;;6.82;3.72;;;12.70;99.90;;;;;;5012230;28;20529;-72
2022/09/26 04:35:40;;;;;;;6.97;2.75;;;12.60;99.90;;;;;;5012323;28;20044;-72
2022/09/26 04:38:06;;;;;;;6.63;3.30;;;12.60;99.90;;;;;;5011876;28;20049;-72
2022/09/26 04:40:31;;;;;;;8.48;3.38;;;12.60;99.90;;;;;;5012310;28;20030;-72
2022/09/26 04:42:57;;;;;;;7.53;3.45;;;12.70;99.90;;;;;;5010929;28;20030;-73
2022/09/26 04:45:23;;;;;;;9.05;3.85;;;12.60;99.90;;;;;;5011734;28;20141;-72
2022/09/26 04:47:49;;;;;;;11.57;3.92;;;12.70;99.90;;;;;;5027158;28;20113;-72
2022/09/26 04:50:15;;;;;;;8.40;3.28;;;12.70;99.80;;;;;;5010607;28;20373;-71
2022/09/26 04:52:40;;;;;;;10.52;3.63;;;12.70;99.80;;;;;;5012476;28;20130;-70
2022/09/26 04:55:07;;;;;;;9.13;3.60;;;12.70;99.80;;;;;;5012051;28;20221;-72
2022/09/26 04:57:33;;;;;;;8.15;3.55;;;12.70;99.80;;;;;;5043460;28;20026;-72
2022/09/26 04:59:59;;;;;;;7.07;3.20;;;12.70;99.80;;;;;;5020689;28;20131;-73
2022/09/26 05:02:24;;;;;;;6.78;3.10;;;12.70;99.80;;;;;;5031284;28;20025;-72
2022/09/26 05:04:50;;;;;;;5.07;3.15;;;12.70;99.80;;;;;;5030921;28;20419;-72
2022/09/26 05:07:17;;;;;;;9.27;3.10;;;12.70;99.70;;;;;;5031460;28;20526;-72
2022/09/26 05:09:43;;;;;;;5.78;3.13;;;12.70;99.80;;;;;;5031188;28;20052;-73
2022/09/26 05:12:09;;;;;;;8.95;3.10;;;12.70;99.70;;;;;;5031135;28;20127;-73
2022/09/26 05:14:35;;;;;;;6.57;3.08;;;12.70;99.70;;;;;;5031191;28;20507;-72
2022/09/26 05:17:01;;;;;;;5.95;3.55;;;12.70;99.70;;;;;;5030900;28;20523;-72
2022/09/26 05:19:27;;;;;;;8.95;3.30;;;12.80;99.70;;;;;;5030112;28;20099;-74
2022/09/26 05:21:53;;;;;;;11.05;3.78;;;12.60;99.60;;;;;;5030952;28;20034;-74
2022/09/26 05:27:06;;;;;;;6.93;3.60;;;12.70;99.70;;;;;;5030854;28;20048;-73
2022/09/26 05:29:31;;;;;;;6.30;3.30;;;12.60;99.60;;;;;;5030639;28;20113;-73
2022/09/26 05:31:58;;;;;;;8.25;3.72;;;12.60;99.60;;;;;;5030789;28;20036;-73
2022/09/26 05:34:24;;;;;;;6.00;3.83;;;12.60;99.60;;;;;;5031065;28;20105;-72
2022/09/26 05:36:51;;;;;;;7.30;3.22;;;12.70;99.70;;;;;;5030367;28;20059;-73
2022/09/26 05:42:04;;;;;;;6.05;3.38;;;12.70;99.50;;;;;;5030921;28;20257;-73
2022/09/26 05:44:30;;;;;;;8.43;3.17;;;12.70;99.60;;;;;;5030528;28;20436;-72
2022/09/26 05:46:57;;;;;;;7.82;3.42;;;12.70;99.50;;;;;;5029424;28;20490;-72
2022/09/26 05:49:24;;;;;;;8.50;3.43;;;12.70;99.50;;;;;;5031141;28;20040;-72
2022/09/26 05:51:52;;;;;;;7.22;3.38;;;12.70;99.50;;;;;;5029251;28;20822;-72
2022/09/26 05:54:17;;;;;;;7.45;3.13;;;12.70;99.40;;;;;;5030249;28;20384;-71
2022/09/26 05:56:43;;;;;;;9.07;3.53;;;12.80;99.40;;;;;;5030011;28;20120;-72
2022/09/26 05:59:08;;;;;;;5.68;3.00;;;12.80;99.40;;;;;;5030434;28;20371;-72
2022/09/26 06:01:34;;;;;;;7.45;2.90;;;12.80;99.40;;;;;;5029484;28;20018;-72
2022/09/26 06:04:04;;;;;;;5.15;2.88;;;12.80;99.40;;;;;;5029313;28;20034;-73
2022/09/26 06:06:29;;;;;;;7.30;3.17;;;12.90;99.40;;;;;;5030259;28;20040;-72
2022/09/26 06:08:55;;;;;;;10.00;2.97;;;12.80;99.20;;;;;;5030080;28;20026;-72
2022/09/26 06:11:24;;;;;;;8.30;3.00;;;12.90;99.30;;;;;;5030231;28;20041;-72
2022/09/26 06:13:50;;;;;;;5.80;3.00;;;12.90;99.30;;;;;;5029917;28;20041;-74
2022/09/26 06:16:19;;;;;;;11.13;4.55;;;12.90;99.30;;;;;;5030535;28;20017;-74
2022/09/26 06:18:46;;;;;;;10.98;3.50;;;12.90;99.50;;;;;;5034582;28;20367;-73
2022/09/26 06:21:15;;;;;;;8.75;3.35;;;12.90;99.30;;;;;;5034435;28;20061;-74
2022/09/26 06:23:41;;;;;;;8.27;3.20;;;12.90;99.30;;;;;;5034065;28;20030;-73
2022/09/26 06:26:09;;;;;;;11.65;3.13;;;13.00;99.30;;;;;;5040209;28;20036;-73
2022/09/26 06:28:35;;;;;;;12.55;4.50;;;13.00;99.40;;;;;;5054175;28;20063;-73
2022/09/26 06:31:12;;;;;;;9.13;3.40;;;13.00;99.40;;;;;;5053933;28;20036;-74
2022/09/26 06:33:38;;;;;;;8.85;3.40;;;13.00;99.40;;;;;;5053979;28;20033;-74
2022/09/26 06:36:09;;;;;;;7.50;2.63;;;13.00;99.30;;;;;;5053853;28;20044;-73
2022/09/26 06:38:35;;;;;;;5.43;2.45;;;13.10;99.40;;;;;;5052609;28;20331;-72
2022/09/26 06:41:01;;;;;;;5.05;2.53;;;13.10;99.30;;;;;;5053589;28;20035;-74
2022/09/26 06:43:27;;;;;;;6.10;2.20;;;13.10;99.20;;;;;;5054175;28;20029;-74
2022/09/26 06:45:53;;;;;;;5.07;2.35;;;13.10;99.10;;;;;;5053687;28;20120;-73
2022/09/26 06:48:23;;;;;;;6.82;2.25;;;13.20;99.20;;;;;;5053457;28;20033;-75
2022/09/26 06:50:54;;;;;;;8.07;2.28;;;13.30;99.10;;;;;;5053629;28;20037;-75
2022/09/26 06:53:20;;;;;;;6.82;2.95;;;13.30;99.00;;;;;;5054080;28;20025;-74
2022/09/26 06:55:46;;;;;;;4.68;2.05;;;13.30;99.00;;;;;;5053337;28;20036;-75
2022/09/26 06:58:12;;;;;;;10.98;2.25;;;13.30;98.80;;;;;;5054063;28;20028;-73
2022/09/26 07:00:39;;;;;;;3.92;1.73;;;13.30;99.10;;;;;;5053397;28;20471;-73
2022/09/26 07:03:05;;;;;;;4.90;1.80;;;13.30;98.80;;;;;;5053483;28;20029;-75
2022/09/26 07:05:31;;;;;;;8.35;3.22;;;13.40;98.80;;;;;;5053463;28;20028;-74
2022/09/26 07:07:57;;;;;;;7.85;2.97;;;13.40;98.70;;;;;;5053580;28;20047;-74
2022/09/26 07:10:23;;;;;;;6.55;2.20;;;13.50;98.70;;;;;;5052598;28;20041;-76
2022/09/26 07:12:49;;;;;;;5.65;2.13;;;13.50;98.70;;;;;;5053065;28;20051;-73
2022/09/26 07:15:18;;;;;;;5.80;2.10;;;13.50;98.60;;;;;;5053186;28;20037;-74
2022/09/26 07:17:46;;;;;;;5.07;2.35;;;13.50;98.50;;;;;;5053207;28;20040;-73
2022/09/26 07:20:17;;;;;;;6.70;2.70;;;13.60;98.70;;;;;;5051912;28;20059;-75
2022/09/26 07:22:43;;;;;;;7.30;3.30;;;13.60;98.60;;;;;;5051741;28;20033;-73
2022/09/26 07:25:10;;;;;;;12.90;4.80;;;13.70;98.60;;;;;;5053312;28;20143;-72
2022/09/26 07:27:36;;;;;;;9.60;3.30;;;13.80;98.40;;;;;;5053220;28;20029;-72
2022/09/26 07:30:03;;;;;;;8.30;2.15;;;13.80;98.30;;;;;;5051692;28;20032;-73
2022/09/26 07:32:32;;;;;;;4.73;2.20;;;13.80;98.30;;;;;;5052970;28;20029;-73
2022/09/26 07:34:58;;;;;;;3.95;2.22;;;13.80;98.40;;;;;;5052496;28;20254;-73
2022/09/26 07:37:25;;;;;;;11.30;2.65;;;13.80;98.40;;;;;;5053035;28;20028;-74
2022/09/26 07:39:50;;;;;;;5.60;2.63;;;13.90;98.40;;;;;;5052549;28;20071;-73
2022/09/26 07:42:17;;;;;;;9.75;3.50;;;14.00;98.40;;;;;;5051385;28;20037;-74
2022/09/26 07:44:46;;;;;;;7.10;2.50;;;14.10;98.40;;;;;;5052912;28;20466;-72
2022/09/26 07:50:15;;;;;;;5.78;2.60;;;14.20;97.80;;;;;;5052635;28;20040;-73
2022/09/26 07:52:45;;;;;;;4.95;2.72;;;14.30;98.00;;;;;;5052955;28;20039;-74
2022/09/26 07:55:24;;;;;;;4.80;2.63;;;14.30;97.70;;;;;;5051707;28;20454;-75
2022/09/26 07:57:50;;;;;;;9.18;3.00;;;14.40;97.70;;;;;;5052546;28;20029;-74
2022/09/26 08:00:17;;;;;;;8.27;3.67;;;14.40;97.60;;;;;;5052413;28;20082;-72
2022/09/26 08:02:45;;;;;;;7.18;2.72;;;14.40;97.20;;;;;;5052258;28;20036;-74
2022/09/26 08:05:23;;;;;;;5.63;2.55;;;14.40;97.30;;;;;;5052211;28;20346;-73
2022/09/26 08:07:48;;;;;;;;;;;14.50;97.20;;;;;;5052572;28;20100;-72
2022/09/26 08:10:20;;;;;;;7.18;2.45;;;14.50;97.20;;;;;;5051660;28;20004;-72
2022/09/26 08:12:46;;;;;;;17.13;4.20;;;14.60;97.10;;;;;;5050899;28;20033;-72
2022/09/26 08:15:13;;;;;;;11.48;3.20;;;14.60;96.90;;;;;;5051947;28;20044;-74
2022/09/26 08:17:39;;;;;;;4.97;3.08;;;14.70;97.10;;;;;;5052146;28;20353;-74
2022/09/26 08:20:06;;;;;;;8.88;4.72;;;14.70;96.60;;;;;;5050845;28;20029;-74
2022/09/26 08:22:32;;;;;;;9.10;2.72;;;14.70;96.90;;;;;;5052472;28;20055;-75
2022/09/26 08:24:59;;;;;;;5.78;2.33;;;14.80;97.10;;;;;;5052080;28;20325;-76
2022/09/26 08:27:25;;;;;;;5.18;2.70;;;14.90;96.80;;;;;;5052760;28;20025;-75
2022/09/26 08:29:51;;;;;;;5.82;2.95;;;15.00;96.80;;;;;;5051919;28;20028;-78
2022/09/26 08:32:18;;;;;;;3.40;2.25;;;15.00;96.70;;;;;;5051050;28;20063;-73
2022/09/26 08:34:44;;;;;;;9.85;2.70;;;14.90;96.70;;;;;;5051713;28;20028;-71
2022/09/26 08:37:10;;;;;;;5.40;2.67;;;15.10;96.60;;;;;;5052062;28;20089;-75
2022/09/26 08:39:36;;;;;;;3.75;2.35;;;15.10;96.50;;;;;;5051474;28;20371;-77
2022/09/26 08:42:07;;;;;;;4.80;2.63;;;15.20;96.40;;;;;;5051434;28;20029;-76
2022/09/26 08:46:28;;;;;;;5.78;2.38;;;15.30;96.40;;;;;;5051460;28;20033;-76
2022/09/26 08:48:12;;;;;;;14.23;3.55;;;15.30;96.50;;;;;;5042517;28;20409;-71
2022/09/26 08:50:49;;;;;;;6.60;2.53;;;15.40;96.20;;;;;;5051499;28;20025;-73
2022/09/26 08:53:23;;;;;;;3.97;2.30;;;15.40;95.80;;;;;;5050376;28;20025;-72
2022/09/26 08:55:50;;;;;;;7.95;2.10;;;15.50;96.10;;;;;;5050292;28;20021;-72
2022/09/26 08:58:21;;;;;;;4.25;2.13;;;15.70;96.20;;;;;;5051768;28;20053;-74
2022/09/26 09:00:53;;;;;;;8.32;2.15;;;15.70;95.90;;;;;;5051583;28;20113;-73
2022/09/26 09:03:21;;;;;;;5.28;2.80;;;15.80;95.90;;;;;;5050399;28;20036;-73
2022/09/26 09:05:50;;;;;;;10.85;2.35;;;16.10;95.80;;;;;;5050118;28;20036;-74
2022/09/26 09:08:29;;;;;;;5.75;2.10;;;16.30;95.30;;;;;;5051340;28;20490;-73
2022/09/26 09:11:06;;;;;;;8.02;2.10;;;16.40;94.80;;;;;;5050944;28;20028;-72
2022/09/26 09:13:55;;;;;;;7.55;1.65;;;16.50;94.20;;;;;;5051589;28;20554;-74
2022/09/26 09:16:24;;;;;;;3.72;1.35;;;16.60;93.50;;;;;;5051288;28;20048;-73
2022/09/26 09:19:01;;;;;;;5.93;1.73;;;16.40;92.80;;;;;;5050721;28;20110;-74
2022/09/26 09:21:30;;;;;;;4.25;1.60;;;16.30;92.70;;;;;;5049678;28;20314;-73
2022/09/26 09:24:15;;;;;;;5.60;2.00;;;16.30;93.10;;;;;;5050806;28;20029;-73
2022/09/26 09:26:50;;;;;;;6.07;2.10;;;16.30;92.50;;;;;;5050716;28;20112;-72
2022/09/26 09:29:18;;;;;;;5.63;1.60;;;16.50;93.40;;;;;;5049892;28;20457;-74
2022/09/26 09:31:44;;;;;;;5.90;1.70;;;16.70;92.90;;;;;;5049520;28;20029;-75
2022/09/26 09:34:32;;;;;;;7.63;1.50;;;16.80;92.80;;;;;;5051325;28;20094;-75
2022/09/26 09:37:03;;;;;;;6.88;1.80;;;17.00;92.10;;;;;;5049513;28;20040;-73
2022/09/26 09:39:34;;;;;;;4.72;1.67;;;16.80;91.40;;;;;;5050927;28;20041;-75
2022/09/26 09:42:24;;;;;;;4.45;1.60;;;16.90;91.80;;;;;;5050613;28;20385;-72
2022/09/26 09:45:13;;;;;;;7.80;1.83;;;16.60;91.90;;;;;;5046449;28;20024;-73
2022/09/26 09:47:39;;;;;;;5.80;1.65;;;16.40;91.90;;;;;;5050208;28;20336;-72
2022/09/26 09:50:35;;;;;;;3.67;1.45;;;16.40;92.40;;;;;;5050657;28;20036;-74
2022/09/26 09:53:12;;;;;;;5.47;2.08;;;16.40;92.30;;;;;;5028627;28;20029;-73
2022/09/26 09:56:01;;;;;;;3.63;2.10;;;16.20;92.20;;;;;;5051069;28;20426;-76
2022/09/26 09:58:32;;;;;;;3.15;1.48;;;16.00;92.50;;;;;;5050743;28;20033;-76
2022/09/26 10:01:07;;;;;;;9.30;1.77;;;16.10;92.50;;;;;;5051054;28;20052;-75
2022/09/26 10:03:54;;;;;;;7.18;1.90;;;16.20;92.90;;;;;;5050929;28;20399;-75
2022/09/26 10:06:21;;;;;;;5.47;1.77;;;16.20;92.90;;;;;;5050485;28;20030;-75
2022/09/26 10:08:46;;;;;;;6.53;1.70;;;16.30;92.80;;;;;;5050389;28;20130;-77
2022/09/26 10:11:22;;;;;;;8.32;1.80;;;16.40;92.50;;;;;;5050455;28;20068;-76
2022/09/26 10:13:52;;;;;;;8.38;1.70;;;16.40;92.30;;;;;;5049248;28;20041;-75
2022/09/26 10:16:18;;;;;;;4.35;1.52;;;16.30;92.10;;;;;;5050798;28;20017;-75
2022/09/26 10:19:07;;;;;;;7.55;1.60;;;16.30;91.50;;;;;;5050489;28;20044;-76
2022/09/26 10:21:39;;;;;;;4.15;1.58;;;16.40;91.70;;;;;;5047563;28;20029;-76
2022/09/26 10:24:21;;;;;;;6.82;1.35;;;16.40;91.20;;;;;;5050665;28;20029;-75
2022/09/26 10:26:48;;;;;;;7.78;1.48;;;16.40;91.40;;;;;;5050358;28;20033;-76
2022/09/26 10:29:33;;;;;;;5.87;1.60;;;16.40;91.40;;;;;;5050469;28;20033;-76
2022/09/26 10:31:59;;;;;;;3.10;1.30;;;16.40;91.20;;;;;;5050424;28;20013;-74
2022/09/26 10:34:33;;;;;;;9.48;2.08;;;16.30;91.30;;;;;;5049424;28;20025;-77
2022/09/26 10:37:20;;;;;;;4.38;1.45;;;16.20;91.10;;;;;;5050294;28;20399;-73
2022/09/26 10:42:43;;;;;;;8.38;4.32;;;16.40;92.10;;;;;;5049978;28;20515;-73
2022/09/26 10:45:14;;;;;;;;;;;16.40;92.00;;;;;;5049357;28;20036;-75
2022/09/26 10:47:45;;;;;;;7.28;1.65;;;16.40;92.10;;;;;;5050135;28;19916;-72
2022/09/26 10:50:22;;;;;;;4.72;1.88;;;16.20;91.80;;;;;;5049299;28;20308;-75
2022/09/26 10:52:56;;;;;;;4.22;1.90;;;16.00;91.90;;;;;;5049726;28;20510;-75
2022/09/26 10:55:38;;;;;;;6.63;2.17;;;15.90;92.20;;;;;;5050899;28;20036;-74
2022/09/26 10:58:07;;;;;;;7.15;1.95;;;16.00;92.40;;;;;;5050321;28;20029;-78
2022/09/26 11:00:36;;;;;;;8.90;1.70;;;15.90;92.60;;;;;;5050723;28;20075;-76
2022/09/26 11:03:12;;;;;;;6.35;1.55;;;15.90;92.50;;;;;;5051997;28;20032;-77
2022/09/26 11:05:55;;;;;;;5.47;1.63;;;15.90;92.70;;;;;;5054316;28;20082;-75
2022/09/26 11:08:23;;;;;;;5.68;1.92;;;15.80;92.70;;;;;;5053964;28;20025;-74
2022/09/26 11:10:51;;;;;;;6.40;1.60;;;15.80;93.10;;;;;;5054219;28;20025;-76
2022/09/26 11:13:27;;;;;;;2.50;1.25;;;15.80;93.00;;;;;;5055077;28;20100;-76
2022/09/26 11:16:00;;;;;;;3.15;1.88;;;15.90;93.10;;;;;;5054659;28;20025;-74
2022/09/26 11:18:49;;;;;;;13.45;2.00;;;16.20;93.90;;;;;;5053167;28;20379;-74
2022/09/26 11:21:23;;;;;;;4.47;1.58;;;16.60;93.30;;;;;;5053895;28;20044;-76
2022/09/26 11:24:20;;;;;;;2.78;1.45;;;16.80;92.80;;;;;;5052676;28;20029;-74
2022/09/26 11:27:18;;;;;;;5.65;1.67;;;16.80;93.10;;;;;;5046019;28;20089;-75
2022/09/26 11:30:00;;;;;;;;;;;16.90;93.00;;;;;;5054176;28;20029;-76
2022/09/26 11:32:39;;;;;;;3.75;1.33;;;16.80;93.00;;;;;;5053866;28;20379;-73
2022/09/26 11:35:11;;;;;;;4.82;1.42;;;16.90;93.20;;;;;;5053348;28;20044;-75
2022/09/26 11:37:56;;;;;;;4.22;1.63;;;16.80;92.80;;;;;;5054063;28;20043;-74
2022/09/26 11:40:36;;;;;;;3.03;1.20;;;16.70;92.50;;;;;;5053840;28;20562;-75
2022/09/26 11:43:12;;;;;;;4.63;1.63;;;16.60;92.50;;;;;;5053877;28;20067;-74
2022/09/26 11:45:58;;;;;;;10.68;1.63;;;16.40;92.60;;;;;;5053547;28;20033;-77
2022/09/26 11:48:29;;;;;;;6.35;1.88;;;16.40;93.10;;;;;;5053861;28;20036;-75
2022/09/26 11:51:07;;;;;;;3.92;1.63;;;16.40;93.40;;;;;;5053830;28;20029;-74
2022/09/26 11:53:59;;;;;;;5.90;1.58;;;16.30;93.80;;;;;;5053319;28;20097;-74
2022/09/26 11:56:28;;;;;;;2.33;1.45;;;16.20;93.50;;;;;;5053377;28;20090;-72
2022/09/26 11:59:26;;;;;;;7.50;1.98;;;16.10;93.90;;;;;;5052688;28;20029;-77
2022/09/26 12:02:14;;;;;;;9.48;2.42;;;16.10;93.90;;;;;;5052920;28;20028;-73
2022/09/26 12:04:45;;;;;;;;;;;15.90;93.90;;;;;;5053124;28;20102;-73
2022/09/26 12:07:19;;;;;;;5.50;1.60;;;15.90;94.10;;;;;;5052518;28;19920;-72
2022/09/26 12:10:09;;;;;;;7.57;1.85;;;15.80;94.70;;;;;;5052424;28;20056;-72
2022/09/26 12:12:55;;;;;;;4.57;1.42;;;15.80;94.90;;;;;;5052218;28;20098;-73
2022/09/26 12:15:28;;;;;;;3.92;1.60;;;15.80;95.10;;;;;;5051720;28;20124;-75
2022/09/26 12:18:24;;;;;;;3.45;1.58;;;15.80;95.20;;;;;;5052568;28;20045;-72
2022/09/26 12:21:17;;;;;;;7.25;1.65;;;15.80;95.40;;;;;;5053099;28;20037;-73
2022/09/26 12:23:53;;;;;;;8.20;1.90;;;15.60;95.50;;;;;;5052139;28;20451;-74
2022/09/26 12:26:47;;;;;;;4.25;1.48;;;15.70;95.80;;;;;;5052640;28;20109;-74
2022/09/26 12:29:46;;;;;;;2.78;1.70;;;15.60;95.90;;;;;;5052200;28;20381;-73
2022/09/26 12:32:29;;;;;;;5.57;1.70;;;15.50;96.10;;;;;;5053057;28;20379;-74
2022/09/26 12:35:14;;;;;;;3.25;1.50;;;15.50;96.10;;;;;;5050773;28;20470;-73
2022/09/26 12:38:07;;;;;;;4.10;1.73;;;15.40;96.00;;;;;;5052103;28;20025;-74
2022/09/26 12:41:13;;;;;;;6.05;1.67;;;15.40;96.00;;;;;;5032302;28;20108;-74
2022/09/26 12:43:54;;;;;;;3.13;1.70;;;15.40;96.00;;;;;;5031763;28;20475;-74
2022/09/26 12:46:40;;;;;;;3.88;1.20;;;15.30;95.80;;;;;;5032236;28;20032;-72
2022/09/26 12:49:23;;;;;;;2.50;1.67;;;15.30;95.90;;;;;;5031967;28;20053;-73
2022/09/26 12:51:53;;;;;;;3.92;1.55;;;15.30;95.90;;;;;;5031671;28;20040;-73
2022/09/26 12:54:28;;;;;;;3.25;1.63;;;15.30;96.20;;;;;;5031692;28;20021;-73
2022/09/26 12:57:03;;;;;;;3.22;1.50;;;15.30;96.10;;;;;;5031735;28;20041;-74
2022/09/26 13:00:09;;;;;;;2.58;1.27;;;15.30;96.00;;;;;;5032399;28;20034;-74
2022/09/26 13:02:35;;;;;;;4.13;1.75;;;15.30;96.10;;;;;;5038504;28;20033;-72
2022/09/26 13:05:33;;;;;;;3.53;1.33;;;15.30;96.30;;;;;;5051538;28;20017;-74
2022/09/26 13:08:07;;;;;;;1.67;1.02;;;15.20;96.50;;;;;;5051363;28;20025;-72
2022/09/26 13:10:49;;;;;;;1.73;1.15;;;15.30;96.60;;;;;;5051902;28;20470;-73
2022/09/26 13:13:23;;;;;;;1.88;1.23;;;15.20;96.40;;;;;;5051178;28;20116;-73
2022/09/26 13:16:24;;;;;;;1.83;1.13;;;15.20;96.60;;;;;;5050978;28;20345;-72
2022/09/26 13:18:59;;;;;;;10.88;1.52;;;15.20;96.70;;;;;;5051028;28;20088;-73
2022/09/26 13:21:53;;;;;;;5.43;1.48;;;15.20;96.70;;;;;;5051170;28;20118;-74
2022/09/26 13:24:24;;;;;;;3.17;1.40;;;15.10;96.50;;;;;;5042800;28;20037;-73
2022/09/26 13:26:59;;;;;;;3.65;1.30;;;15.20;96.60;;;;;;5050972;28;20033;-72
2022/09/26 13:29:36;;;;;;;4.57;1.17;;;15.10;96.40;;;;;;5049675;28;20087;-72
2022/09/26 13:32:22;;;;;;;0.88;0.60;;;15.10;96.50;;;;;;5050117;28;20131;-72